createdAt,value
2023-03-06T00:02:05.259Z,92.42
2023-03-06T00:04:33.011Z,92.44
2023-03-06T00:07:02.111Z,92.12
2023-03-06T00:09:29.856Z,92.46
2023-03-06T00:11:57.591Z,92.74
2023-03-06T00:14:25.332Z,92.24
2023-03-06T00:16:55.310Z,92.84
2023-03-06T00:19:23.535Z,92.59
2023-03-06T00:21:51.435Z,92.51
2023-03-06T00:24:20.674Z,92.15
2023-03-06T00:26:48.492Z,92.88
2023-03-06T00:29:16.275Z,92.73
2023-03-06T00:31:46.326Z,92.44
2023-03-06T00:34:14.281Z,93.24
2023-03-06T00:36:42.669Z,93.06
2023-03-06T00:39:10.443Z,93.42
2023-03-06T00:41:39.757Z,93.13
2023-03-06T00:44:07.503Z,93.84
2023-03-06T00:46:35.362Z,93.29
2023-03-06T00:49:03.139Z,93.36
2023-03-06T00:51:30.967Z,93.96
2023-03-06T00:53:58.755Z,93.88
2023-03-06T00:56:27.035Z,93.60
2023-03-06T00:58:56.122Z,94.27
2023-03-06T01:01:23.989Z,94.18
2023-03-06T01:03:51.699Z,94.09
2023-03-06T01:06:19.443Z,94.33
2023-03-06T01:08:47.179Z,94.59
2023-03-06T01:11:14.946Z,94.57
2023-03-06T01:13:42.677Z,94.82
2023-03-06T01:16:14.433Z,95.34
2023-03-06T01:18:43.004Z,94.86
2023-03-06T01:21:10.890Z,95.64
2023-03-06T01:23:39.184Z,95.35
2023-03-06T01:26:07.526Z,95.30
2023-03-06T01:28:37.097Z,95.34
2023-03-06T01:31:05.558Z,96.25
2023-03-06T01:33:35.023Z,96.14
2023-03-06T01:36:05.561Z,95.54
2023-03-06T01:38:33.623Z,95.88
2023-03-06T01:41:01.357Z,95.30
2023-03-06T01:43:31.834Z,95.64
2023-03-06T01:46:23.632Z,96.00
2023-03-06T01:48:55.895Z,95.82
2023-03-06T01:51:27.960Z,96.01
2023-03-06T01:53:56.787Z,96.46
2023-03-06T01:56:25.977Z,96.49
2023-03-06T01:58:54.136Z,97.00
2023-03-06T02:01:22.609Z,96.66
2023-03-06T02:03:52.952Z,97.64
2023-03-06T02:06:21.981Z,96.81
2023-03-06T02:08:51.350Z,96.80
2023-03-06T02:11:21.305Z,96.89
2023-03-06T02:13:52.246Z,97.80
2023-03-06T02:16:23.145Z,96.93
2023-03-06T02:18:52.755Z,96.98
2023-03-06T02:21:24.271Z,97.41
2023-03-06T02:24:00.718Z,96.92
2023-03-06T02:26:31.066Z,97.39
2023-03-06T02:28:59.359Z,97.32
2023-03-06T02:31:28.761Z,97.28
2023-03-06T02:34:10.053Z,97.62
2023-03-06T02:36:42.721Z,97.72
2023-03-06T02:39:11.199Z,97.43
2023-03-06T02:41:40.384Z,97.91
2023-03-06T02:44:08.430Z,98.29
2023-03-06T02:46:36.566Z,97.79
2023-03-06T02:49:04.387Z,97.84
2023-03-06T02:51:32.132Z,98.05
2023-03-06T02:53:59.880Z,98.93
2023-03-06T02:56:28.357Z,98.01
2023-03-06T02:58:57.447Z,98.42
2023-03-06T03:01:25.256Z,98.06
2023-03-06T03:03:53.073Z,99.42
2023-03-06T03:06:20.766Z,99.49
2023-03-06T03:08:48.558Z,98.34
2023-03-06T03:11:16.348Z,99.06
2023-03-06T03:13:44.112Z,99.49
2023-03-06T03:16:15.811Z,99.11
2023-03-06T03:18:47.772Z,99.23
2023-03-06T03:21:16.057Z,100.00
2023-03-06T03:23:43.845Z,99.80
2023-03-06T03:26:14.771Z,99.76
2023-03-06T03:28:42.675Z,99.39
2023-03-06T03:31:12.300Z,99.53
2023-03-06T03:33:42.341Z,100.00
2023-03-06T03:36:10.707Z,100.00
2023-03-06T03:38:38.477Z,99.80
2023-03-06T03:41:06.664Z,99.80
2023-03-06T03:43:34.538Z,99.51
2023-03-06T03:46:02.374Z,100.00
2023-03-06T03:48:30.304Z,100.00
2023-03-06T03:51:05.836Z,100.00
2023-03-06T03:53:33.593Z,100.00
2023-03-06T03:56:01.391Z,100.00
2023-03-06T03:58:29.103Z,100.00
2023-03-06T04:00:56.893Z,100.00
2023-03-06T04:03:24.663Z,100.00
2023-03-06T04:05:54.004Z,100.00
2023-03-06T04:08:24.195Z,100.00
2023-03-06T04:10:52.408Z,100.00
2023-03-06T04:13:21.041Z,100.00
2023-03-06T04:15:49.270Z,100.00
2023-03-06T04:18:17.445Z,100.00
2023-03-06T04:20:46.086Z,100.00
2023-03-06T04:23:14.276Z,100.00
2023-03-06T04:25:43.469Z,100.00
2023-03-06T04:28:11.912Z,100.00
2023-03-06T04:30:39.889Z,100.00
2023-03-06T04:33:07.761Z,100.00
2023-03-06T04:35:35.786Z,100.00
2023-03-06T04:38:03.908Z,100.00
2023-03-06T04:40:33.952Z,100.00
2023-03-06T04:43:04.774Z,100.00
2023-03-06T04:45:33.696Z,100.00
2023-03-06T04:48:01.869Z,100.00
2023-03-06T04:50:32.677Z,100.00
2023-03-06T04:53:01.472Z,100.00
2023-03-06T04:55:30.047Z,100.00
2023-03-06T04:57:58.948Z,100.00
2023-03-06T05:00:31.406Z,100.00
2023-03-06T05:03:00.735Z,100.00
2023-03-06T05:05:29.008Z,100.00
2023-03-06T05:07:57.477Z,100.00
2023-03-06T05:10:25.347Z,100.00
2023-03-06T05:12:53.318Z,100.00
2023-03-06T05:15:21.367Z,100.00
2023-03-06T05:17:50.524Z,100.00
2023-03-06T05:20:18.995Z,100.00
2023-03-06T05:22:46.766Z,100.00
2023-03-06T05:25:14.752Z,100.00
2023-03-06T05:27:42.564Z,100.00
2023-03-06T05:30:14.245Z,100.00
2023-03-06T05:32:42.851Z,100.00
2023-03-06T05:35:18.064Z,100.00
2023-03-06T05:37:45.939Z,100.00
2023-03-06T05:40:14.574Z,100.00
2023-03-06T05:42:42.656Z,100.00
2023-03-06T05:45:11.874Z,100.00
2023-03-06T05:47:39.592Z,100.00
2023-03-06T05:50:10.450Z,100.00
2023-03-06T05:52:40.596Z,100.00
2023-03-06T05:55:11.504Z,100.00
2023-03-06T05:57:39.324Z,100.00
2023-03-06T06:00:08.639Z,100.00
2023-03-06T06:02:36.496Z,100.00
2023-03-06T06:05:04.436Z,100.00
2023-03-06T06:07:32.157Z,100.00
2023-03-06T06:10:03.633Z,100.00
2023-03-06T06:12:32.383Z,100.00
2023-03-06T06:15:00.197Z,100.00
2023-03-06T06:17:28.067Z,100.00
2023-03-06T06:19:58.403Z,100.00
2023-03-06T06:22:26.190Z,100.00
2023-03-06T06:24:53.953Z,100.00
2023-03-06T06:27:23.142Z,100.00
2023-03-06T06:29:52.418Z,100.00
2023-03-06T06:32:20.258Z,100.00
2023-03-06T06:34:48.037Z,100.00
2023-03-06T06:37:15.846Z,100.00
2023-03-06T06:39:43.838Z,100.00
2023-03-06T06:42:30.221Z,100.00
2023-03-06T06:45:00.473Z,100.00
2023-03-06T06:47:30.909Z,100.00
2023-03-06T06:49:58.718Z,100.00
2023-03-06T06:52:26.774Z,100.00
2023-03-06T06:54:54.696Z,100.00
2023-03-06T06:57:25.381Z,100.00
2023-03-06T06:59:54.262Z,100.00
2023-03-06T07:02:23.839Z,100.00
2023-03-06T07:05:05.897Z,100.00
2023-03-06T07:07:36.256Z,100.00
2023-03-06T07:10:05.785Z,100.00
2023-03-06T07:12:35.067Z,100.00
2023-03-06T07:15:03.075Z,100.00
2023-03-06T07:17:32.309Z,100.00
2023-03-06T07:20:00.629Z,100.00
2023-03-06T07:22:31.996Z,100.00
2023-03-06T07:25:04.219Z,100.00
2023-03-06T07:27:32.066Z,100.00
2023-03-06T07:29:59.821Z,100.00
2023-03-06T07:32:27.769Z,100.00
2023-03-06T07:35:13.050Z,100.00
2023-03-06T07:37:44.687Z,100.00
2023-03-06T07:40:13.392Z,100.00
2023-03-06T07:42:41.124Z,100.00
2023-03-06T07:45:09.732Z,100.00
2023-03-06T07:47:37.537Z,100.00
2023-03-06T07:50:08.033Z,100.00
2023-03-06T07:52:35.914Z,100.00
2023-03-06T07:55:04.020Z,100.00
2023-03-06T07:57:31.989Z,100.00
2023-03-06T08:00:01.007Z,100.00
2023-03-06T08:02:28.798Z,100.00
2023-03-06T08:04:56.866Z,100.00
2023-03-06T08:07:26.007Z,100.00
2023-03-06T08:09:53.772Z,100.00
2023-03-06T08:12:21.553Z,100.00
2023-03-06T08:14:49.280Z,100.00
2023-03-06T08:17:17.039Z,100.00
2023-03-06T08:19:44.784Z,100.00
2023-03-06T08:22:14.006Z,100.00
2023-03-06T08:24:43.257Z,100.00
2023-03-06T08:27:11.094Z,100.00
2023-03-06T08:29:38.873Z,100.00
2023-03-06T08:32:07.327Z,100.00
2023-03-06T08:34:35.170Z,100.00
2023-03-06T08:37:03.047Z,100.00
2023-03-06T08:39:30.849Z,100.00
2023-03-06T08:41:59.995Z,100.00
2023-03-06T08:44:28.081Z,100.00
2023-03-06T08:46:55.858Z,100.00
2023-03-06T08:49:23.665Z,100.00
2023-03-06T08:51:52.641Z,100.00
2023-03-06T08:54:20.483Z,99.78
2023-03-06T08:56:48.765Z,99.26
2023-03-06T08:59:20.367Z,97.87
2023-03-06T09:01:48.185Z,97.96
2023-03-06T09:04:16.219Z,98.35
2023-03-06T09:06:45.247Z,97.32
2023-03-06T09:09:13.795Z,97.49
2023-03-06T09:11:43.989Z,96.92
2023-03-06T09:14:12.358Z,96.79
2023-03-06T09:16:41.841Z,96.23
2023-03-06T09:19:09.779Z,96.98
2023-03-06T09:21:38.860Z,94.58
2023-03-06T09:24:07.020Z,94.92
2023-03-06T09:26:51.618Z,92.49
2023-03-06T09:29:19.612Z,91.60
2023-03-06T09:31:49.314Z,91.48
2023-03-06T09:34:17.321Z,92.22
2023-03-06T09:36:56.151Z,92.75
2023-03-06T09:39:25.771Z,92.57
2023-03-06T09:41:54.300Z,92.85
2023-03-06T09:44:26.026Z,92.16
2023-03-06T09:47:21.302Z,92.19
2023-03-06T09:50:01.714Z,92.27
2023-03-06T09:52:37.502Z,92.70
2023-03-06T09:55:14.316Z,92.64
2023-03-06T09:57:53.464Z,91.00
2023-03-06T10:00:27.648Z,91.53
2023-03-06T10:03:07.506Z,90.65
2023-03-06T10:05:40.773Z,91.27
2023-03-06T10:08:21.943Z,90.64
2023-03-06T10:10:55.050Z,90.19
2023-03-06T10:13:27.868Z,90.32
2023-03-06T10:16:04.842Z,89.80
2023-03-06T10:18:38.379Z,89.02
2023-03-06T10:21:21.286Z,89.64
2023-03-06T10:23:55.353Z,88.59
2023-03-06T10:26:26.617Z,88.53
2023-03-06T10:29:07.329Z,88.57
2023-03-06T10:31:36.288Z,88.72
2023-03-06T10:34:16.951Z,88.66
2023-03-06T10:36:44.882Z,88.11
2023-03-06T10:39:17.657Z,88.59
2023-03-06T10:41:46.333Z,89.12
2023-03-06T10:44:25.291Z,88.42
2023-03-06T10:46:55.015Z,88.27
2023-03-06T10:49:31.514Z,88.65
2023-03-06T10:52:02.664Z,88.54
2023-03-06T10:54:31.983Z,88.22
2023-03-06T10:56:59.869Z,88.40
2023-03-06T10:59:29.439Z,87.93
2023-03-06T11:02:00.487Z,88.37
2023-03-06T11:04:32.477Z,87.68
2023-03-06T11:07:09.361Z,87.59
2023-03-06T11:09:37.410Z,87.85
2023-03-06T11:12:27.568Z,86.80
2023-03-06T11:15:11.793Z,86.61
2023-03-06T11:17:50.279Z,86.37
2023-03-06T11:20:22.147Z,85.63
2023-03-06T11:22:53.011Z,85.50
2023-03-06T11:25:23.529Z,85.02
2023-03-06T11:27:58.088Z,84.36
2023-03-06T11:30:31.377Z,85.21
2023-03-06T11:33:02.198Z,84.20
2023-03-06T11:35:40.739Z,83.06
2023-03-06T11:38:15.459Z,82.56
2023-03-06T11:40:49.645Z,82.16
2023-03-06T11:43:24.085Z,82.15
2023-03-06T11:45:59.117Z,81.38
2023-03-06T11:48:32.882Z,80.92
2023-03-06T11:51:08.023Z,79.61
2023-03-06T11:53:39.069Z,79.67
2023-03-06T11:56:22.821Z,78.78
2023-03-06T11:59:17.193Z,79.73
2023-03-06T12:01:55.583Z,78.62
2023-03-06T12:04:37.378Z,78.84
2023-03-06T12:07:18.477Z,77.36
2023-03-06T12:09:53.416Z,78.75
2023-03-06T12:12:43.034Z,78.56
2023-03-06T12:15:24.542Z,78.45
2023-03-06T12:18:04.493Z,78.40
2023-03-06T12:20:45.877Z,78.29
2023-03-06T12:23:29.947Z,78.08
2023-03-06T12:26:02.178Z,77.29
2023-03-06T12:28:44.904Z,78.13
2023-03-06T12:31:32.352Z,77.44
2023-03-06T12:34:18.712Z,77.91
2023-03-06T12:36:58.588Z,75.33
2023-03-06T12:39:40.102Z,74.17
2023-03-06T12:42:27.661Z,72.01
2023-03-06T12:45:11.903Z,65.49
2023-03-06T12:47:43.404Z,68.29
2023-03-06T12:50:20.014Z,68.84
2023-03-06T12:52:49.218Z,68.92
2023-03-06T12:55:24.299Z,68.65
2023-03-06T12:57:53.928Z,68.30
2023-03-06T13:01:04.233Z,68.02
2023-03-06T13:03:44.889Z,67.89
2023-03-06T13:06:50.893Z,64.78
2023-03-06T13:09:34.389Z,64.56
2023-03-06T13:12:19.037Z,62.85
2023-03-06T13:15:28.548Z,64.49
2023-03-06T13:17:56.833Z,64.93
2023-03-06T13:20:35.509Z,65.70
2023-03-06T13:23:42.929Z,66.25
2023-03-06T13:26:16.027Z,63.52
2023-03-06T13:28:49.356Z,62.80
2023-03-06T13:31:28.268Z,63.05
2023-03-06T13:33:59.814Z,62.35
2023-03-06T13:36:30.492Z,62.13
2023-03-06T13:39:06.862Z,63.08
2023-03-06T13:41:43.749Z,62.71
2023-03-06T13:44:49.030Z,62.64
2023-03-06T13:48:21.087Z,63.15
2023-03-06T13:50:43.212Z,64.45
2023-03-06T13:53:38.501Z,63.98
2023-03-06T13:56:38.495Z,62.79
2023-03-06T13:59:38.964Z,63.00
2023-03-06T14:02:33.585Z,64.23
2023-03-06T14:05:05.054Z,63.40
2023-03-06T14:07:36.350Z,62.56
2023-03-06T14:10:20.885Z,61.83
2023-03-06T14:13:02.976Z,61.19
2023-03-06T14:15:41.993Z,60.90
2023-03-06T14:18:16.611Z,61.46
2023-03-06T14:20:50.006Z,61.19
2023-03-06T14:23:25.181Z,60.52
2023-03-06T14:25:59.319Z,61.32
2023-03-06T14:28:29.589Z,61.44
2023-03-06T14:30:59.485Z,61.33
2023-03-06T14:33:31.523Z,61.98
2023-03-06T14:36:02.913Z,61.56
2023-03-06T14:38:35.598Z,61.69
2023-03-06T14:41:04.327Z,61.89
2023-03-06T14:43:32.400Z,61.16
2023-03-06T14:46:01.599Z,60.45
2023-03-06T14:48:40.331Z,60.75
2023-03-06T14:51:17.984Z,61.01
2023-03-06T14:53:48.517Z,60.65
2023-03-06T14:56:19.380Z,58.93
2023-03-06T14:58:53.878Z,57.40
2023-03-06T15:01:31.946Z,56.96
2023-03-06T15:04:01.423Z,57.29
2023-03-06T15:06:36.332Z,56.98
2023-03-06T15:09:10.147Z,58.63
2023-03-06T15:11:53.698Z,59.14
2023-03-06T15:14:28.219Z,60.23
2023-03-06T15:16:56.047Z,60.83
2023-03-06T15:19:23.962Z,62.27
2023-03-06T15:21:53.615Z,62.52
2023-03-06T15:24:33.491Z,61.59
2023-03-06T15:27:03.611Z,62.72
2023-03-06T15:29:31.939Z,63.17
2023-03-06T15:32:28.716Z,62.60
2023-03-06T15:35:26.923Z,63.65
2023-03-06T15:37:56.700Z,65.21
2023-03-06T15:40:26.392Z,65.98
2023-03-06T15:42:54.382Z,66.42
2023-03-06T15:45:24.516Z,67.42
2023-03-06T15:47:54.228Z,68.18
2023-03-06T15:50:25.264Z,69.45
2023-03-06T15:52:53.460Z,70.17
2023-03-06T15:55:25.691Z,71.47
2023-03-06T15:57:55.844Z,72.17
2023-03-06T16:00:28.314Z,72.46
2023-03-06T16:02:56.389Z,73.35
2023-03-06T16:05:25.615Z,73.00
2023-03-06T16:07:53.543Z,73.05
2023-03-06T16:10:25.133Z,73.07
2023-03-06T16:12:55.864Z,73.59
2023-03-06T16:15:28.839Z,74.17
2023-03-06T16:17:56.879Z,74.23
2023-03-06T16:20:27.224Z,73.49
2023-03-06T16:22:55.291Z,74.69
2023-03-06T16:25:27.171Z,73.99
2023-03-06T16:27:58.986Z,73.92
2023-03-06T16:30:28.579Z,74.68
2023-03-06T16:32:57.100Z,74.15
2023-03-06T16:35:25.579Z,72.63
2023-03-06T16:37:53.367Z,71.70
2023-03-06T16:40:23.264Z,71.26
2023-03-06T16:42:54.822Z,71.60
2023-03-06T16:45:24.229Z,71.30
2023-03-06T16:47:52.413Z,72.04
2023-03-06T16:50:24.262Z,72.32
2023-03-06T16:52:54.000Z,72.72
2023-03-06T16:55:22.969Z,73.17
2023-03-06T16:57:52.444Z,74.35
2023-03-06T17:00:22.295Z,75.78
2023-03-06T17:02:50.867Z,75.96
2023-03-06T17:05:19.121Z,75.80
2023-03-06T17:07:47.333Z,75.94
2023-03-06T17:10:17.245Z,76.42
2023-03-06T17:12:44.999Z,77.47
2023-03-06T17:15:15.227Z,78.14
2023-03-06T17:17:42.960Z,78.37
2023-03-06T17:20:12.002Z,78.47
2023-03-06T17:22:40.500Z,79.12
2023-03-06T17:25:09.628Z,79.39
2023-03-06T17:27:38.445Z,80.14
2023-03-06T17:30:07.573Z,79.69
2023-03-06T17:32:40.789Z,81.65
2023-03-06T17:35:09.358Z,81.32
2023-03-06T17:37:37.343Z,81.89
2023-03-06T17:40:09.232Z,82.20
2023-03-06T17:42:37.095Z,83.26
2023-03-06T17:45:06.332Z,83.17
2023-03-06T17:47:34.198Z,83.89
2023-03-06T17:50:03.988Z,84.48
2023-03-06T17:52:31.982Z,85.00
2023-03-06T17:54:59.731Z,85.36
2023-03-06T17:57:27.585Z,85.56
2023-03-06T17:59:56.357Z,85.99
2023-03-06T18:02:24.385Z,86.37
2023-03-06T18:04:52.317Z,87.33
2023-03-06T18:07:22.173Z,87.78
2023-03-06T18:09:49.915Z,87.07
2023-03-06T18:12:17.762Z,87.96
2023-03-06T18:14:45.518Z,88.84
2023-03-06T18:17:13.433Z,88.30
2023-03-06T18:19:41.333Z,88.42
2023-03-06T18:22:09.118Z,89.03
2023-03-06T18:24:38.912Z,88.87
2023-03-06T18:27:06.716Z,89.41
2023-03-06T18:29:34.509Z,89.57
2023-03-06T18:32:02.500Z,90.12
2023-03-06T18:34:30.334Z,90.02
2023-03-06T18:36:58.083Z,90.73
2023-03-06T18:39:25.883Z,90.61
2023-03-06T18:41:55.919Z,91.24
2023-03-06T18:44:23.778Z,91.37
2023-03-06T18:46:51.699Z,91.90
2023-03-06T18:49:22.227Z,91.67
2023-03-06T18:51:51.252Z,91.54
2023-03-06T18:54:19.397Z,92.40
2023-03-06T18:56:47.265Z,92.30
2023-03-06T18:59:18.992Z,92.90
2023-03-06T19:01:47.703Z,93.07
2023-03-06T19:04:17.796Z,92.97
2023-03-06T19:06:45.632Z,93.00
2023-03-06T19:09:13.397Z,93.82
2023-03-06T19:11:42.745Z,94.09
2023-03-06T19:14:10.795Z,94.11
2023-03-06T19:16:40.041Z,95.14
2023-03-06T19:19:07.927Z,95.65
2023-03-06T19:21:35.738Z,95.94
2023-03-06T19:24:04.225Z,96.23
2023-03-06T19:26:32.002Z,96.60
2023-03-06T19:28:59.967Z,96.94
2023-03-06T19:31:29.374Z,97.73
2023-03-06T19:33:58.790Z,98.29
2023-03-06T19:36:33.930Z,98.30
2023-03-06T19:39:04.592Z,98.33
2023-03-06T19:41:32.440Z,99.12
2023-03-06T19:44:02.583Z,99.70
2023-03-06T19:46:31.713Z,100.00
2023-03-06T19:49:02.148Z,100.00
2023-03-06T19:51:30.328Z,100.00
2023-03-06T19:53:58.705Z,100.00
2023-03-06T19:56:28.822Z,100.00
2023-03-06T19:58:57.373Z,100.00
2023-03-06T20:01:26.851Z,100.00
2023-03-06T20:03:58.404Z,100.00
2023-03-06T20:06:29.604Z,100.00
2023-03-06T20:08:57.448Z,100.00
2023-03-06T20:11:29.722Z,100.00
2023-03-06T20:13:58.184Z,100.00
2023-03-06T20:16:27.838Z,100.00
2023-03-06T20:18:59.148Z,100.00
2023-03-06T20:21:30.542Z,100.00
2023-03-06T20:23:58.993Z,100.00
2023-03-06T20:26:28.277Z,100.00
2023-03-06T20:28:56.160Z,100.00
2023-03-06T20:31:26.712Z,100.00
2023-03-06T20:33:56.068Z,100.00
2023-03-06T20:36:27.250Z,100.00
2023-03-06T20:38:56.573Z,100.00
2023-03-06T20:41:26.172Z,100.00
2023-03-06T20:43:54.095Z,100.00
2023-03-06T20:46:23.434Z,100.00
2023-03-06T20:48:52.798Z,100.00
2023-03-06T20:51:22.508Z,100.00
2023-03-06T20:53:53.003Z,100.00
2023-03-06T20:56:24.622Z,100.00
2023-03-06T20:58:52.932Z,100.00
2023-03-06T21:01:21.441Z,100.00
2023-03-06T21:03:50.061Z,100.00
2023-03-06T21:06:17.992Z,100.00
2023-03-06T21:08:45.826Z,100.00
2023-03-06T21:11:13.734Z,100.00
2023-03-06T21:13:42.862Z,100.00
2023-03-06T21:16:14.780Z,100.00
2023-03-06T21:18:43.056Z,100.00
2023-03-06T21:21:13.527Z,100.00
2023-03-06T21:23:41.781Z,100.00
2023-03-06T21:26:13.095Z,100.00
2023-03-06T21:28:42.906Z,100.00
2023-03-06T21:31:12.387Z,100.00
2023-03-06T21:33:40.427Z,100.00
2023-03-06T21:36:09.011Z,100.00
2023-03-06T21:38:37.051Z,100.00
2023-03-06T21:41:09.240Z,100.00
2023-03-06T21:43:36.996Z,100.00
2023-03-06T21:46:06.495Z,100.00
2023-03-06T21:48:34.563Z,100.00
2023-03-06T21:51:10.065Z,100.00
2023-03-06T21:53:37.899Z,100.00
2023-03-06T21:56:06.516Z,100.00
2023-03-06T21:58:34.502Z,100.00
2023-03-06T22:01:02.318Z,100.00
2023-03-06T22:03:31.411Z,100.00
2023-03-06T22:06:08.566Z,100.00
2023-03-06T22:08:39.081Z,100.00
2023-03-06T22:11:08.593Z,100.00
2023-03-06T22:13:36.576Z,100.00
2023-03-06T22:16:05.302Z,100.00
2023-03-06T22:18:34.934Z,100.00
2023-03-06T22:21:07.713Z,100.00
2023-03-06T22:23:35.426Z,100.00
2023-03-06T22:26:04.623Z,100.00
2023-03-06T22:28:32.493Z,100.00
2023-03-06T22:31:05.428Z,100.00
2023-03-06T22:33:34.627Z,100.00
2023-03-06T22:36:06.376Z,100.00
2023-03-06T22:38:34.439Z,100.00
2023-03-06T22:41:02.301Z,100.00
2023-03-06T22:43:30.249Z,100.00
2023-03-06T22:46:01.779Z,100.00
2023-03-06T22:48:29.889Z,100.00
2023-03-06T22:51:02.998Z,100.00
2023-03-06T22:53:30.765Z,100.00
2023-03-06T22:55:59.866Z,100.00
2023-03-06T22:58:28.414Z,100.00
2023-03-06T23:00:56.213Z,100.00
2023-03-06T23:03:24.076Z,100.00
2023-03-06T23:05:51.801Z,100.00
2023-03-06T23:08:20.904Z,100.00
2023-03-06T23:10:48.609Z,100.00
2023-03-06T23:13:16.349Z,100.00
2023-03-06T23:15:44.153Z,100.00
2023-03-06T23:18:11.903Z,100.00
2023-03-06T23:20:42.959Z,100.00
2023-03-06T23:23:10.809Z,100.00
2023-03-06T23:25:40.012Z,100.00
2023-03-06T23:28:07.854Z,100.00
2023-03-06T23:30:35.704Z,100.00
2023-03-06T23:33:03.401Z,100.00
2023-03-06T23:35:35.678Z,100.00
2023-03-06T23:38:03.588Z,100.00
2023-03-06T23:40:32.316Z,100.00
2023-03-06T23:43:01.460Z,100.00
2023-03-06T23:45:31.572Z,100.00
2023-03-06T23:47:59.861Z,100.00
2023-03-06T23:50:27.706Z,100.00
2023-03-06T23:52:58.944Z,100.00
2023-03-06T23:55:26.674Z,100.00
2023-03-06T23:57:54.415Z,100.00
